Time;durP1;ratioP1;P1;durP2;ratioP2;P2;SDS_P1;SDS_P2;PMS_P1;PMS_P2;Temp;Humidity;BMP_temperature;BMP_pressure;BME280_temperature;BME280_humidity;BME280_pressure;Samples;Min_cycle;Max_cycle;Signal;HPM_P1;HPM_P2
2021/10/03 00:00:13;;;;;;;7.05;5.70;;;18.00;99.90;;;;;;5056738;28;20298;-70
2021/10/03 00:02:42;;;;;;;5.63;5.00;;;18.00;99.90;;;;;;5057233;28;20282;-70
2021/10/03 00:05:11;;;;;;;5.82;4.47;;;18.00;99.90;;;;;;5057496;28;20223;-70
2021/10/03 00:07:40;;;;;;;5.22;4.60;;;18.00;99.90;;;;;;5057354;28;20202;-70
2021/10/03 00:10:07;;;;;;;6.70;5.30;;;17.90;99.90;;;;;;5057172;28;20227;-70
2021/10/03 00:12:34;;;;;;;4.90;4.45;;;17.90;99.90;;;;;;5057012;28;20298;-69
2021/10/03 00:15:01;;;;;;;5.85;4.25;;;17.90;99.90;;;;;;5057020;28;20298;-70
2021/10/03 00:17:29;;;;;;;5.80;4.13;;;17.80;99.90;;;;;;5057107;28;20222;-70
2021/10/03 00:19:57;;;;;;;5.93;4.60;;;17.70;99.90;;;;;;5057080;28;20294;-70
2021/10/03 00:22:24;;;;;;;6.00;4.78;;;17.70;99.90;;;;;;5056626;28;20203;-70
2021/10/03 00:24:50;;;;;;;5.30;4.80;;;17.70;99.90;;;;;;5056595;28;20302;-70
2021/10/03 00:27:17;;;;;;;5.03;4.40;;;17.60;99.90;;;;;;5056946;28;20293;-70
2021/10/03 00:29:44;;;;;;;4.28;3.88;;;17.60;99.90;;;;;;5056886;28;20203;-70
2021/10/03 00:32:11;;;;;;;4.13;3.70;;;17.50;99.90;;;;;;5056448;28;20203;-70
2021/10/03 00:34:39;;;;;;;8.50;4.25;;;17.50;99.90;;;;;;5056815;28;20290;-70
2021/10/03 00:37:06;;;;;;;5.28;4.18;;;17.50;99.90;;;;;;5056306;28;20234;-70
2021/10/03 00:39:33;;;;;;;3.95;3.33;;;17.40;99.90;;;;;;5056436;28;20657;-70
2021/10/03 00:42:00;;;;;;;5.60;4.43;;;17.50;99.90;;;;;;5056487;28;20678;-70
2021/10/03 00:44:28;;;;;;;5.55;4.35;;;17.50;99.90;;;;;;5056576;28;20210;-70
2021/10/03 00:46:55;;;;;;;5.68;4.72;;;17.40;99.90;;;;;;5056545;28;20241;-70
2021/10/03 00:49:22;;;;;;;4.93;3.72;;;17.40;99.90;;;;;;5056517;28;20199;-70
2021/10/03 00:51:50;;;;;;;5.05;3.55;;;17.30;99.90;;;;;;5056276;28;20213;-70
2021/10/03 00:54:17;;;;;;;4.20;3.80;;;17.30;99.90;;;;;;5056465;28;20666;-70
2021/10/03 00:56:45;;;;;;;3.65;3.35;;;17.30;99.90;;;;;;5056288;28;20223;-70
2021/10/03 00:59:12;;;;;;;3.90;3.50;;;17.40;99.90;;;;;;5056193;28;20680;-70
2021/10/03 01:01:39;;;;;;;3.80;3.47;;;17.30;99.90;;;;;;5056151;28;20208;-70
2021/10/03 01:04:06;;;;;;;5.00;3.88;;;17.20;99.90;;;;;;5056112;28;20207;-70
2021/10/03 01:06:33;;;;;;;3.90;3.38;;;17.20;99.90;;;;;;5056350;28;20231;-70
2021/10/03 01:09:01;;;;;;;5.18;3.80;;;17.30;99.90;;;;;;5055920;28;20199;-70
2021/10/03 01:11:28;;;;;;;4.32;3.78;;;17.30;99.90;;;;;;5054861;28;20214;-70
2021/10/03 01:13:55;;;;;;;4.88;3.85;;;17.30;99.90;;;;;;5055842;28;20290;-70
2021/10/03 01:16:22;;;;;;;4.60;4.10;;;17.30;99.90;;;;;;5056100;28;20223;-70
2021/10/03 01:18:49;;;;;;;3.80;3.40;;;17.40;99.90;;;;;;5055996;28;20572;-70
2021/10/03 01:21:18;;;;;;;5.00;3.70;;;17.40;99.90;;;;;;5055698;28;20628;-70
2021/10/03 01:23:45;;;;;;;4.22;3.83;;;17.40;99.90;;;;;;5055990;28;20204;-70
2021/10/03 01:26:11;;;;;;;4.90;4.40;;;17.40;99.90;;;;;;5055655;28;20242;-70
2021/10/03 01:28:38;;;;;;;4.78;4.13;;;17.40;99.90;;;;;;5055618;28;20235;-70
2021/10/03 01:31:09;;;;;;;3.28;2.97;;;17.40;99.90;;;;;;5055545;28;20214;-70
2021/10/03 01:33:36;;;;;;;4.75;3.60;;;17.40;99.90;;;;;;5055423;28;20253;-70
2021/10/03 01:36:05;;;;;;;4.82;4.32;;;17.40;99.90;;;;;;5055596;28;20224;-69
2021/10/03 01:38:34;;;;;;;4.93;3.75;;;17.50;99.90;;;;;;5055593;28;20227;-70
2021/10/03 01:41:01;;;;;;;5.00;4.50;;;17.50;99.90;;;;;;5055642;28;20209;-70
2021/10/03 01:43:28;;;;;;;5.15;4.60;;;17.50;99.90;;;;;;5055517;28;20206;-70
2021/10/03 01:45:54;;;;;;;5.72;4.40;;;17.50;99.90;;;;;;5055235;28;20322;-70
2021/10/03 01:48:23;;;;;;;5.38;4.30;;;17.60;99.90;;;;;;5055501;28;20222;-70
2021/10/03 01:50:52;;;;;;;5.60;4.60;;;17.60;99.90;;;;;;5055428;28;20225;-70
2021/10/03 01:53:21;;;;;;;4.47;3.72;;;17.60;99.90;;;;;;5055248;28;20285;-69
2021/10/03 01:55:50;;;;;;;4.93;4.43;;;17.50;99.90;;;;;;5055111;28;20230;-70
2021/10/03 01:58:20;;;;;;;3.92;3.42;;;17.40;99.90;;;;;;5055186;28;20312;-70
2021/10/03 02:00:51;;;;;;;5.03;3.90;;;17.30;99.90;;;;;;5055859;28;20207;-70
2021/10/03 02:03:18;;;;;;;4.32;3.92;;;17.20;99.90;;;;;;5054910;28;20211;-70
2021/10/03 02:05:47;;;;;;;5.20;4.40;;;17.20;99.90;;;;;;5055021;28;20219;-70
2021/10/03 02:08:16;;;;;;;6.75;4.55;;;17.20;99.90;;;;;;5055137;28;20214;-70
2021/10/03 02:10:45;;;;;;;5.38;4.40;;;17.20;99.90;;;;;;5055187;28;20290;-71
2021/10/03 02:13:14;;;;;;;5.95;4.35;;;17.30;99.90;;;;;;5054587;28;20207;-70
2021/10/03 02:15:43;;;;;;;4.20;3.67;;;17.30;99.90;;;;;;5054919;28;20584;-70
2021/10/03 02:18:11;;;;;;;5.13;4.38;;;17.30;99.90;;;;;;5054789;28;20227;-70
2021/10/03 02:20:39;;;;;;;4.47;3.83;;;17.30;99.90;;;;;;5054768;28;20561;-70
2021/10/03 02:23:08;;;;;;;5.07;4.57;;;17.30;99.90;;;;;;5054544;28;20210;-70
2021/10/03 02:25:43;;;;;;;4.35;3.78;;;17.30;99.90;;;;;;5054413;28;20241;-70
2021/10/03 02:28:11;;;;;;;4.45;4.05;;;17.30;99.90;;;;;;5054715;28;20203;-70
2021/10/03 02:30:39;;;;;;;4.60;3.92;;;17.30;99.90;;;;;;5054588;28;20723;-70
2021/10/03 02:33:06;;;;;;;4.30;3.67;;;17.30;99.90;;;;;;5054357;28;20203;-70
2021/10/03 02:35:33;;;;;;;5.40;4.50;;;17.30;99.90;;;;;;5054320;28;20219;-70
2021/10/03 02:38:00;;;;;;;4.47;3.90;;;17.30;99.90;;;;;;5054393;28;20258;-71
2021/10/03 02:40:27;;;;;;;5.30;3.85;;;17.30;99.90;;;;;;5054379;28;20214;-71
2021/10/03 02:42:54;;;;;;;4.38;3.90;;;17.30;99.90;;;;;;5054030;28;20302;-70
2021/10/03 02:45:21;;;;;;;4.65;3.92;;;17.30;99.90;;;;;;5054482;28;20229;-70
2021/10/03 02:47:49;;;;;;;4.15;3.75;;;17.30;99.90;;;;;;5054509;28;20206;-70
2021/10/03 02:50:16;;;;;;;4.22;3.70;;;17.30;99.90;;;;;;5054241;28;20206;-70
2021/10/03 02:52:43;;;;;;;4.82;4.32;;;17.10;99.90;;;;;;5054002;28;20294;-70
2021/10/03 02:55:10;;;;;;;4.60;4.10;;;16.90;99.90;;;;;;5054054;28;20249;-70
2021/10/03 02:57:37;;;;;;;5.60;3.88;;;16.80;99.90;;;;;;5053752;28;20223;-70
2021/10/03 03:00:06;;;;;;;4.28;3.88;;;16.80;99.90;;;;;;5054023;28;20207;-70
2021/10/03 03:02:32;;;;;;;3.70;3.40;;;16.80;99.90;;;;;;5053688;28;20209;-70
2021/10/03 03:05:01;;;;;;;5.05;3.90;;;16.80;99.90;;;;;;5053855;28;20206;-70
2021/10/03 03:07:27;;;;;;;3.92;3.45;;;16.90;99.90;;;;;;5053937;28;20200;-70
2021/10/03 03:09:54;;;;;;;5.53;4.25;;;16.90;99.90;;;;;;5053682;28;20203;-70
2021/10/03 03:12:21;;;;;;;3.80;3.40;;;16.90;99.90;;;;;;5053540;28;20657;-70
2021/10/03 03:14:48;;;;;;;4.63;3.97;;;16.90;99.90;;;;;;5053739;28;20199;-70
2021/10/03 03:17:16;;;;;;;4.80;4.13;;;16.90;99.90;;;;;;5053806;28;20283;-70
2021/10/03 03:19:44;;;;;;;4.60;4.07;;;16.90;99.90;;;;;;5053692;28;20203;-70
2021/10/03 03:22:13;;;;;;;4.32;3.90;;;16.90;99.90;;;;;;5053605;28;20682;-70
2021/10/03 03:24:41;;;;;;;4.53;3.78;;;16.90;99.90;;;;;;5053523;28;20224;-70
2021/10/03 03:27:08;;;;;;;5.00;3.92;;;16.80;99.90;;;;;;5053638;28;20317;-70
2021/10/03 03:29:35;;;;;;;3.92;3.53;;;16.70;99.90;;;;;;5053576;28;20287;-70
2021/10/03 03:32:03;;;;;;;3.83;3.45;;;16.70;99.90;;;;;;5053274;28;20210;-70
2021/10/03 03:34:30;;;;;;;4.45;4.00;;;16.60;99.90;;;;;;5052899;28;20296;-70
2021/10/03 03:36:57;;;;;;;4.07;3.70;;;16.50;99.90;;;;;;5053221;28;20704;-70
2021/10/03 03:39:25;;;;;;;4.38;3.80;;;16.50;99.90;;;;;;5053418;28;20404;-70
2021/10/03 03:41:52;;;;;;;5.40;3.85;;;16.40;99.90;;;;;;5053200;28;20209;-70
2021/10/03 03:44:19;;;;;;;5.57;4.00;;;16.30;99.90;;;;;;5053386;28;20582;-70
2021/10/03 03:46:46;;;;;;;8.95;4.30;;;16.30;99.90;;;;;;5053270;28;20235;-70
2021/10/03 03:49:13;;;;;;;4.18;3.50;;;16.30;99.90;;;;;;5053187;28;20203;-70
2021/10/03 03:51:39;;;;;;;3.92;3.40;;;16.30;99.90;;;;;;5053194;28;20642;-70
2021/10/03 03:54:06;;;;;;;4.57;4.10;;;16.30;99.90;;;;;;5053242;28;20683;-70
2021/10/03 03:56:35;;;;;;;4.30;3.90;;;16.30;99.90;;;;;;5053360;28;20301;-70
2021/10/03 03:59:01;;;;;;;5.28;4.55;;;16.30;99.90;;;;;;5053246;28;20226;-70
2021/10/03 04:01:28;;;;;;;5.90;5.35;;;16.30;99.90;;;;;;5053264;28;20640;-70
2021/10/03 04:03:55;;;;;;;5.78;4.30;;;16.30;99.90;;;;;;5053330;28;20302;-70
2021/10/03 04:06:22;;;;;;;5.30;4.40;;;16.30;99.90;;;;;;5052990;28;20313;-70
2021/10/03 04:08:50;;;;;;;6.45;4.68;;;16.30;99.90;;;;;;5053161;28;20749;-70
2021/10/03 04:11:17;;;;;;;4.93;4.15;;;16.40;99.90;;;;;;5053057;28;20209;-70
2021/10/03 04:13:46;;;;;;;8.50;5.18;;;16.40;99.90;;;;;;5053127;28;20561;-70
2021/10/03 04:16:12;;;;;;;5.20;4.70;;;16.40;99.90;;;;;;5053177;28;20228;-70
2021/10/03 04:18:39;;;;;;;6.25;4.00;;;16.50;99.90;;;;;;5053103;28;20231;-70
2021/10/03 04:21:06;;;;;;;4.35;3.95;;;16.40;99.90;;;;;;5052814;28;20747;-70
2021/10/03 04:23:33;;;;;;;4.47;4.07;;;16.40;99.90;;;;;;5052948;28;20627;-70
2021/10/03 04:26:00;;;;;;;4.80;4.25;;;16.40;99.90;;;;;;5052742;28;20239;-70
2021/10/03 04:28:27;;;;;;;4.45;3.85;;;16.40;99.90;;;;;;5052769;28;20298;-70
2021/10/03 04:30:55;;;;;;;6.07;4.68;;;16.40;99.90;;;;;;5053064;28;20202;-70
2021/10/03 04:33:23;;;;;;;5.70;4.30;;;16.30;99.90;;;;;;5052704;28;20208;-70
2021/10/03 04:35:49;;;;;;;5.00;3.90;;;16.20;99.90;;;;;;5052817;28;20222;-70
2021/10/03 04:38:16;;;;;;;5.38;3.75;;;16.10;99.90;;;;;;5052955;28;20249;-70
2021/10/03 04:40:43;;;;;;;3.72;3.33;;;16.10;99.90;;;;;;5052881;28;20202;-70
2021/10/03 04:43:10;;;;;;;4.40;4.00;;;16.10;99.90;;;;;;5052743;28;20301;-70
2021/10/03 04:45:37;;;;;;;3.60;3.30;;;16.10;99.90;;;;;;5053488;28;20638;-70
2021/10/03 04:48:06;;;;;;;5.10;3.97;;;16.20;99.90;;;;;;5056322;28;20699;-70
2021/10/03 04:50:33;;;;;;;3.97;3.25;;;16.10;99.90;;;;;;5056512;28;20621;-70
2021/10/03 04:53:00;;;;;;;4.00;3.40;;;16.10;99.90;;;;;;5056278;28;20206;-70
2021/10/03 04:55:26;;;;;;;4.25;3.50;;;16.10;99.90;;;;;;5056789;28;20227;-70
2021/10/03 04:57:53;;;;;;;5.20;4.20;;;16.10;99.90;;;;;;5056344;28;20206;-70
2021/10/03 05:00:20;;;;;;;5.47;4.80;;;16.20;99.90;;;;;;5056103;28;20207;-70
2021/10/03 05:02:47;;;;;;;4.30;3.90;;;16.20;99.90;;;;;;5055949;28;20206;-70
2021/10/03 05:05:15;;;;;;;4.72;3.60;;;16.30;99.90;;;;;;5056309;28;20235;-70
2021/10/03 05:07:42;;;;;;;5.75;4.50;;;16.30;99.90;;;;;;5056431;28;20209;-70
2021/10/03 05:10:09;;;;;;;5.07;4.20;;;16.40;99.90;;;;;;5056146;28;20290;-70
2021/10/03 05:12:36;;;;;;;3.42;3.13;;;16.30;99.90;;;;;;5056008;28;20203;-70
2021/10/03 05:15:03;;;;;;;2.60;2.40;;;16.30;99.90;;;;;;5055789;28;20297;-70
2021/10/03 05:17:30;;;;;;;2.45;2.25;;;16.40;99.90;;;;;;5056067;28;20295;-70
2021/10/03 05:19:57;;;;;;;4.38;3.60;;;16.50;99.90;;;;;;5055854;28;20231;-70
2021/10/03 05:22:25;;;;;;;4.70;3.65;;;16.60;99.90;;;;;;5055529;28;20203;-70
2021/10/03 05:24:52;;;;;;;3.53;3.22;;;16.60;99.90;;;;;;5055638;28;20226;-70
2021/10/03 05:27:20;;;;;;;4.90;4.43;;;16.70;99.90;;;;;;5055917;28;20305;-70
2021/10/03 05:29:47;;;;;;;4.55;4.07;;;16.80;99.90;;;;;;5055756;28;20230;-70
2021/10/03 05:32:14;;;;;;;3.80;3.45;;;16.80;99.90;;;;;;5055426;28;20203;-70
2021/10/03 05:34:41;;;;;;;4.55;4.15;;;16.80;99.90;;;;;;5055674;28;20569;-70
2021/10/03 05:37:08;;;;;;;5.45;4.10;;;16.70;99.90;;;;;;5055467;28;20716;-70
2021/10/03 05:39:36;;;;;;;4.55;3.63;;;16.70;99.90;;;;;;5055529;28;20317;-70
2021/10/03 05:42:03;;;;;;;4.25;3.45;;;16.60;99.90;;;;;;5055365;28;20205;-69
2021/10/03 05:44:30;;;;;;;5.35;4.00;;;16.60;99.90;;;;;;5055305;28;20210;-70
2021/10/03 05:46:57;;;;;;;4.10;3.65;;;16.70;99.90;;;;;;5055474;28;20226;-70
2021/10/03 05:49:24;;;;;;;4.60;4.20;;;16.70;99.90;;;;;;5055361;28;20202;-70
2021/10/03 05:51:51;;;;;;;4.30;3.88;;;16.70;99.90;;;;;;5055126;28;20213;-70
2021/10/03 05:54:18;;;;;;;5.10;3.78;;;16.70;99.90;;;;;;5055377;28;20564;-69
2021/10/03 05:56:46;;;;;;;4.78;4.13;;;16.80;99.90;;;;;;5054645;28;20220;-70
2021/10/03 05:59:13;;;;;;;3.97;3.67;;;16.70;99.90;;;;;;5055034;28;20226;-70
2021/10/03 06:01:40;;;;;;;4.72;3.90;;;16.70;99.90;;;;;;5055094;28;20237;-70
2021/10/03 06:04:07;;;;;;;4.03;3.63;;;16.80;99.90;;;;;;5055093;28;20294;-70
2021/10/03 06:06:34;;;;;;;4.50;3.85;;;16.80;99.90;;;;;;5055117;28;20232;-70
2021/10/03 06:09:01;;;;;;;4.60;3.65;;;16.90;99.90;;;;;;5054891;28;20295;-70
2021/10/03 06:11:28;;;;;;;4.82;4.28;;;16.90;99.90;;;;;;5054594;28;20302;-70
2021/10/03 06:13:57;;;;;;;6.30;3.70;;;17.00;99.90;;;;;;5055103;28;20206;-70
2021/10/03 06:16:24;;;;;;;4.18;3.72;;;17.00;99.90;;;;;;5054857;28;20271;-70
2021/10/03 06:18:51;;;;;;;5.10;4.18;;;17.00;99.90;;;;;;5054789;28;20314;-70
2021/10/03 06:21:18;;;;;;;4.40;3.53;;;17.10;99.90;;;;;;5054617;28;20231;-69
2021/10/03 06:23:46;;;;;;;4.10;3.60;;;17.10;99.90;;;;;;5054586;28;20684;-70
2021/10/03 06:26:13;;;;;;;4.70;3.70;;;17.10;99.90;;;;;;5054471;28;20325;-70
2021/10/03 06:28:40;;;;;;;3.75;3.45;;;17.20;99.90;;;;;;5054655;28;20628;-70
2021/10/03 06:31:08;;;;;;;4.53;3.70;;;17.30;99.90;;;;;;5054328;28;20199;-69
2021/10/03 06:33:37;;;;;;;3.42;2.97;;;17.30;99.90;;;;;;5054379;28;20692;-70
2021/10/03 06:36:04;;;;;;;3.97;3.65;;;17.30;99.90;;;;;;5054154;28;20735;-70
2021/10/03 06:38:31;;;;;;;4.22;3.70;;;17.40;99.90;;;;;;5054240;28;20211;-70
2021/10/03 06:40:58;;;;;;;3.63;3.30;;;17.50;99.90;;;;;;5054349;28;20204;-70
2021/10/03 06:43:25;;;;;;;4.00;3.70;;;17.40;99.90;;;;;;5054382;28;20200;-70
2021/10/03 06:45:52;;;;;;;4.93;3.78;;;17.40;99.90;;;;;;5054097;28;20777;-70
2021/10/03 06:48:20;;;;;;;4.45;3.60;;;17.40;99.90;;;;;;5054351;28;20206;-70
2021/10/03 06:50:47;;;;;;;3.90;3.50;;;17.50;99.90;;;;;;5054224;28;20242;-70
2021/10/03 06:53:13;;;;;;;3.50;3.20;;;17.70;99.90;;;;;;5053891;28;20733;-70
2021/10/03 06:55:40;;;;;;;4.78;3.78;;;17.70;99.90;;;;;;5053977;28;20310;-70
2021/10/03 06:58:07;;;;;;;3.92;3.45;;;17.90;99.90;;;;;;5054191;28;20211;-70
2021/10/03 07:00:34;;;;;;;4.22;3.50;;;18.00;99.90;;;;;;5053931;28;20723;-70
2021/10/03 07:03:01;;;;;;;4.20;3.58;;;18.00;99.90;;;;;;5053875;28;20211;-70
2021/10/03 07:05:29;;;;;;;4.20;3.80;;;18.00;99.90;;;;;;5053712;28;20285;-70
2021/10/03 07:07:56;;;;;;;3.38;3.08;;;18.00;99.90;;;;;;5053538;28;20212;-70
2021/10/03 07:10:23;;;;;;;3.67;2.97;;;18.10;99.90;;;;;;5053990;28;20204;-70
2021/10/03 07:12:50;;;;;;;4.00;3.60;;;18.10;99.90;;;;;;5053493;28;20294;-70
2021/10/03 07:15:17;;;;;;;5.20;4.03;;;18.00;99.90;;;;;;5053785;28;20223;-70
2021/10/03 07:17:44;;;;;;;3.90;3.42;;;18.00;99.90;;;;;;5053810;28;20253;-70
2021/10/03 07:20:11;;;;;;;3.65;3.20;;;18.10;99.90;;;;;;5053550;28;20223;-70
2021/10/03 07:22:39;;;;;;;3.75;3.45;;;18.00;99.90;;;;;;5053525;28;20290;-70
2021/10/03 07:25:07;;;;;;;5.18;3.90;;;18.00;99.90;;;;;;5053442;28;20289;-70
2021/10/03 07:27:34;;;;;;;5.10;4.10;;;18.10;99.90;;;;;;5053622;28;20203;-70
2021/10/03 07:30:03;;;;;;;5.45;3.95;;;18.10;99.90;;;;;;5053664;28;20246;-70
2021/10/03 07:32:31;;;;;;;5.97;3.85;;;18.10;99.90;;;;;;5053295;28;20208;-70
2021/10/03 07:34:58;;;;;;;4.38;3.83;;;18.20;99.90;;;;;;5053358;28;20206;-70
2021/10/03 07:37:25;;;;;;;4.28;3.92;;;18.20;99.90;;;;;;5053621;28;20610;-70
2021/10/03 07:39:53;;;;;;;4.40;3.65;;;18.30;99.90;;;;;;5053368;28;20220;-70
2021/10/03 07:42:20;;;;;;;3.55;3.25;;;18.30;99.90;;;;;;5053158;28;20204;-70
2021/10/03 07:44:47;;;;;;;4.47;4.07;;;18.40;99.90;;;;;;5053480;28;20301;-70
2021/10/03 07:47:13;;;;;;;4.28;3.40;;;18.50;99.90;;;;;;5053254;28;20736;-70
2021/10/03 07:49:40;;;;;;;4.60;3.80;;;18.50;99.90;;;;;;5053437;28;20202;-71
2021/10/03 07:52:08;;;;;;;4.75;3.83;;;18.70;99.90;;;;;;5053267;28;20244;-70
2021/10/03 07:54:35;;;;;;;3.95;3.42;;;18.90;99.90;;;;;;5053304;28;20204;-71
2021/10/03 07:57:03;;;;;;;4.57;3.60;;;19.00;99.90;;;;;;5053373;28;20315;-70
2021/10/03 07:59:30;;;;;;;3.83;3.47;;;19.10;99.90;;;;;;5053197;28;20474;-70
2021/10/03 08:01:57;;;;;;;3.80;3.37;;;19.10;99.90;;;;;;5053062;28;20542;-70
2021/10/03 08:04:24;;;;;;;4.60;3.40;;;19.20;99.90;;;;;;5053105;28;20453;-71
2021/10/03 08:06:51;;;;;;;4.20;3.60;;;19.20;99.90;;;;;;5053149;28;20473;-70
2021/10/03 08:09:18;;;;;;;3.47;3.07;;;19.10;99.90;;;;;;5053289;28;20566;-71
2021/10/03 08:11:44;;;;;;;3.47;2.80;;;19.10;99.90;;;;;;5052840;28;20439;-70
2021/10/03 08:14:13;;;;;;;5.47;4.35;;;19.20;99.90;;;;;;5053232;28;20449;-71
2021/10/03 08:16:40;;;;;;;4.80;4.28;;;19.10;99.90;;;;;;5053172;28;20234;-70
2021/10/03 08:19:07;;;;;;;4.70;3.90;;;19.20;99.90;;;;;;5053036;28;20213;-71
2021/10/03 08:21:33;;;;;;;3.47;3.17;;;19.20;99.90;;;;;;5056692;28;20606;-71
2021/10/03 08:24:01;;;;;;;3.43;3.07;;;19.30;99.90;;;;;;5057465;28;20533;-71
2021/10/03 08:26:27;;;;;;;3.90;3.60;;;19.30;99.90;;;;;;5056579;28;20513;-71
2021/10/03 08:28:54;;;;;;;6.03;3.50;;;19.30;99.90;;;;;;5056930;28;20445;-71
2021/10/03 08:31:22;;;;;;;3.73;3.43;;;19.40;99.90;;;;;;5056727;28;20807;-71
2021/10/03 08:33:49;;;;;;;4.13;3.70;;;19.30;99.90;;;;;;5056833;28;20464;-71
2021/10/03 08:36:16;;;;;;;3.47;3.17;;;19.30;99.90;;;;;;5056691;28;20463;-71
2021/10/03 08:38:43;;;;;;;5.30;4.10;;;19.30;99.90;;;;;;5056545;28;20529;-71
2021/10/03 08:41:10;;;;;;;3.77;3.30;;;19.40;99.90;;;;;;5056281;28;20568;-70
2021/10/03 08:43:37;;;;;;;3.67;3.37;;;19.50;99.90;;;;;;5056528;28;20478;-71
2021/10/03 08:46:05;;;;;;;3.80;2.90;;;19.60;99.90;;;;;;5056475;28;20473;-71
2021/10/03 08:48:33;;;;;;;3.73;3.43;;;19.80;99.90;;;;;;5056611;28;20454;-71
2021/10/03 08:51:00;;;;;;;3.43;2.90;;;19.90;99.90;;;;;;5056073;28;20462;-70
2021/10/03 08:53:27;;;;;;;3.60;3.30;;;20.00;99.90;;;;;;5056465;28;20538;-71
2021/10/03 08:55:56;;;;;;;3.57;3.23;;;20.00;99.90;;;;;;5056375;28;20490;-71
2021/10/03 08:58:23;;;;;;;3.63;3.33;;;20.20;99.90;;;;;;5056392;28;20449;-71
2021/10/03 09:00:51;;;;;;;4.20;3.47;;;20.10;99.90;;;;;;5056261;28;20476;-70
2021/10/03 09:03:19;;;;;;;3.60;3.30;;;20.10;99.80;;;;;;5056063;28;20440;-71
2021/10/03 09:05:52;;;;;;;3.27;2.97;;;20.10;99.90;;;;;;5056246;28;20555;-70
2021/10/03 09:08:20;;;;;;;3.50;2.83;;;20.10;99.90;;;;;;5056256;28;20445;-71
2021/10/03 09:10:52;;;;;;;3.50;2.90;;;20.00;99.20;;;;;;5056170;28;20446;-71
2021/10/03 09:13:20;;;;;;;3.50;3.00;;;20.00;99.30;;;;;;5055992;28;20456;-71
2021/10/03 09:16:02;;;;;;;3.80;3.20;;;19.90;98.90;;;;;;5055865;28;20519;-71
2021/10/03 09:18:35;;;;;;;3.10;2.90;;;19.80;99.90;;;;;;5056027;28;20578;-71
2021/10/03 09:21:03;;;;;;;2.30;2.10;;;19.90;99.90;;;;;;5055752;28;20498;-71
2021/10/03 09:23:30;;;;;;;3.10;2.80;;;19.80;99.90;;;;;;5055932;28;20452;-71
2021/10/03 09:25:58;;;;;;;4.37;3.00;;;19.80;99.90;;;;;;5055435;28;21093;-71
2021/10/03 09:28:30;;;;;;;3.70;3.40;;;19.80;99.90;;;;;;5055847;28;20452;-71
2021/10/03 09:31:00;;;;;;;4.03;2.90;;;19.80;99.90;;;;;;5055312;28;20444;-71
2021/10/03 09:33:45;;;;;;;4.70;3.20;;;19.80;99.90;;;;;;5056221;28;20447;-71
2021/10/03 09:36:15;;;;;;;2.97;2.53;;;19.80;99.90;;;;;;5055473;28;20468;-71
2021/10/03 09:38:54;;;;;;;3.67;3.20;;;19.80;99.90;;;;;;5055671;28;20455;-71
2021/10/03 09:41:23;;;;;;;4.00;3.20;;;19.80;99.90;;;;;;5055400;28;20484;-70
2021/10/03 09:43:53;;;;;;;3.20;2.90;;;19.90;99.90;;;;;;5055540;28;20536;-71
2021/10/03 09:46:42;;;;;;;3.50;3.20;;;19.90;99.90;;;;;;5055476;28;20464;-71
2021/10/03 09:49:11;;;;;;;4.10;3.70;;;20.00;99.90;;;;;;5055374;28;20448;-71
2021/10/03 09:51:41;;;;;;;3.30;2.90;;;20.00;99.00;;;;;;5055046;28;20922;-71
2021/10/03 09:54:09;;;;;;;3.73;2.77;;;20.10;99.40;;;;;;5055386;28;20536;-71
2021/10/03 09:56:36;;;;;;;3.33;2.70;;;20.10;99.50;;;;;;5055285;28;20469;-71
2021/10/03 09:59:05;;;;;;;4.10;3.70;;;20.20;99.10;;;;;;5055293;28;20445;-71
2021/10/03 10:01:33;;;;;;;4.60;3.60;;;20.30;98.90;;;;;;5054860;28;20485;-71
2021/10/03 10:04:02;;;;;;;3.57;3.10;;;20.30;99.40;;;;;;5054922;28;20864;-71
2021/10/03 10:06:29;;;;;;;3.47;3.17;;;20.40;99.30;;;;;;5054839;28;20993;-71
2021/10/03 10:08:58;;;;;;;4.13;3.50;;;20.40;99.50;;;;;;5055097;28;20440;-71
2021/10/03 10:11:34;;;;;;;4.00;3.13;;;20.50;99.90;;;;;;5054738;28;20441;-70
2021/10/03 10:14:03;;;;;;;3.40;3.10;;;20.50;99.90;;;;;;5054963;28;20448;-71
2021/10/03 10:16:41;;;;;;;3.40;3.10;;;20.50;99.60;;;;;;5054865;28;20560;-71
2021/10/03 10:19:35;;;;;;;3.47;2.90;;;20.60;99.90;;;;;;5054595;28;20543;-71
2021/10/03 10:22:36;;;;;;;3.47;3.13;;;20.60;99.90;;;;;;5054565;28;20500;-70
2021/10/03 10:25:11;;;;;;;3.50;3.20;;;20.70;99.90;;;;;;5054573;28;20483;-71
2021/10/03 10:28:06;;;;;;;4.77;4.37;;;20.80;99.90;;;;;;5054808;28;20438;-71
2021/10/03 10:30:34;;;;;;;4.43;3.60;;;20.80;99.90;;;;;;5054745;28;20450;-71
2021/10/03 10:33:10;;;;;;;3.30;3.00;;;20.90;99.90;;;;;;5054191;28;20452;-71
2021/10/03 10:35:38;;;;;;;3.73;3.13;;;20.90;99.20;;;;;;5054573;28;20473;-71
2021/10/03 10:38:19;;;;;;;4.60;3.50;;;21.00;99.30;;;;;;5054508;28;20449;-71
2021/10/03 10:40:50;;;;;;;3.50;3.20;;;21.00;98.90;;;;;;5054294;28;20987;-71
2021/10/03 10:43:43;;;;;;;3.60;3.30;;;21.00;99.80;;;;;;5053207;28;20536;-71
2021/10/03 10:46:44;;;;;;;2.93;2.63;;;21.10;99.80;;;;;;5054359;28;20465;-71
2021/10/03 10:49:46;;;;;;;4.40;3.23;;;21.00;98.90;;;;;;5054299;28;20453;-71
2021/10/03 10:52:40;;;;;;;3.53;3.23;;;21.20;98.00;;;;;;5053718;28;20936;-71
2021/10/03 10:55:25;;;;;;;3.70;2.90;;;21.30;98.50;;;;;;5054230;28;20449;-71
2021/10/03 10:58:16;;;;;;;3.20;2.87;;;21.20;98.50;;;;;;5054450;28;20450;-71
2021/10/03 11:01:06;;;;;;;3.80;3.30;;;21.30;97.60;;;;;;5054493;28;20516;-71
2021/10/03 11:04:06;;;;;;;3.73;3.43;;;21.30;97.30;;;;;;5053888;28;20494;-71
2021/10/03 11:06:55;;;;;;;3.60;3.30;;;21.30;98.40;;;;;;5054327;28;20819;-71
2021/10/03 11:09:22;;;;;;;3.53;3.23;;;21.20;98.10;;;;;;5049479;28;20525;-71
2021/10/03 11:12:13;;;;;;;4.10;3.17;;;21.30;99.20;;;;;;5053846;28;20481;-71
2021/10/03 11:14:44;;;;;;;3.07;2.77;;;21.30;99.90;;;;;;5053850;28;20445;-71
2021/10/03 11:17:13;;;;;;;3.03;2.73;;;21.30;99.90;;;;;;5053927;28;20880;-71
2021/10/03 11:19:50;;;;;;;3.30;2.90;;;21.20;99.90;;;;;;5053812;28;20928;-71
2021/10/03 11:22:24;;;;;;;3.33;3.03;;;21.30;99.90;;;;;;5053423;28;20445;-71
2021/10/03 11:24:53;;;;;;;4.10;3.30;;;21.30;99.90;;;;;;5053288;28;20819;-71
2021/10/03 11:27:21;;;;;;;3.43;3.00;;;21.20;99.90;;;;;;5053449;28;20943;-70
2021/10/03 11:29:51;;;;;;;3.70;3.00;;;21.20;99.90;;;;;;5053684;28;20552;-71
2021/10/03 11:32:20;;;;;;;3.70;3.37;;;21.30;99.90;;;;;;5053535;28;20464;-71
2021/10/03 11:34:49;;;;;;;3.47;3.10;;;21.30;99.90;;;;;;5053497;28;20941;-71
2021/10/03 11:37:23;;;;;;;4.07;3.67;;;21.30;99.90;;;;;;5053613;28;20451;-71
2021/10/03 11:39:52;;;;;;;3.30;3.00;;;21.40;99.90;;;;;;5053638;28;20434;-71
2021/10/03 11:42:29;;;;;;;3.53;3.23;;;21.40;99.90;;;;;;5053287;28;20473;-71
2021/10/03 11:45:01;;;;;;;3.97;3.57;;;21.50;99.20;;;;;;5053482;28;20438;-71
2021/10/03 11:47:36;;;;;;;3.80;3.40;;;21.50;98.10;;;;;;5053626;28;20512;-71
2021/10/03 11:50:03;;;;;;;3.50;3.20;;;21.60;98.00;;;;;;5053439;28;20447;-71
2021/10/03 11:52:32;;;;;;;3.70;3.40;;;21.70;98.60;;;;;;5053270;28;20470;-71
2021/10/03 11:55:04;;;;;;;3.70;3.40;;;21.70;98.90;;;;;;5054865;28;20441;-71
2021/10/03 11:57:31;;;;;;;3.63;3.30;;;21.60;99.50;;;;;;5057632;28;20445;-71
2021/10/03 12:00:17;;;;;;;5.23;3.13;;;21.60;99.70;;;;;;5057473;28;20488;-71
2021/10/03 12:02:46;;;;;;;3.83;3.43;;;21.70;99.90;;;;;;5057340;28;20464;-70
2021/10/03 12:05:17;;;;;;;3.53;3.10;;;21.70;99.90;;;;;;5057130;28;20462;-71
2021/10/03 12:07:45;;;;;;;4.00;3.70;;;21.70;99.90;;;;;;5057170;28;20429;-71
2021/10/03 12:10:14;;;;;;;3.73;3.30;;;21.60;99.90;;;;;;5057511;28;20528;-71
2021/10/03 12:12:57;;;;;;;3.20;3.00;;;21.60;99.90;;;;;;5056931;28;20445;-71
2021/10/03 12:15:48;;;;;;;3.50;3.20;;;21.50;99.90;;;;;;5056896;28;20475;-71
2021/10/03 12:18:35;;;;;;;3.60;3.30;;;21.60;99.90;;;;;;5057194;28;20438;-71
2021/10/03 12:21:04;;;;;;;4.83;4.37;;;21.70;99.90;;;;;;5056837;28;20575;-70
2021/10/03 12:23:43;;;;;;;5.40;4.80;;;21.70;99.90;;;;;;5057018;28;20533;-71
2021/10/03 12:26:13;;;;;;;5.40;4.80;;;21.60;99.90;;;;;;5056677;28;20476;-71
2021/10/03 12:28:51;;;;;;;5.60;5.10;;;21.60;99.90;;;;;;5056852;28;20958;-71
2021/10/03 12:31:45;;;;;;;5.30;4.47;;;21.60;99.90;;;;;;5056710;28;20525;-71
2021/10/03 12:34:37;;;;;;;6.40;5.70;;;21.60;99.90;;;;;;5056920;28;20529;-71
2021/10/03 12:37:06;;;;;;;6.90;5.03;;;21.70;99.90;;;;;;5056851;28;20479;-71
2021/10/03 12:39:35;;;;;;;7.23;5.93;;;21.80;99.90;;;;;;5056809;28;20448;-71
2021/10/03 12:42:14;;;;;;;5.70;5.10;;;21.90;99.90;;;;;;5056290;28;20846;-70
2021/10/03 12:44:43;;;;;;;5.60;5.07;;;21.90;99.90;;;;;;5056672;28;20536;-71
2021/10/03 12:47:13;;;;;;;5.70;5.00;;;22.00;99.90;;;;;;5056629;28;20552;-71
2021/10/03 12:49:40;;;;;;;5.73;4.77;;;22.10;99.90;;;;;;5056581;28;20529;-71
2021/10/03 12:52:09;;;;;;;6.87;6.10;;;22.20;99.90;;;;;;5056193;28;21027;-71
2021/10/03 12:54:36;;;;;;;24.40;17.63;;;22.30;99.90;;;;;;5056422;28;20448;-70
2021/10/03 12:57:04;;;;;;;9.57;6.70;;;22.40;99.90;;;;;;5056449;28;20889;-71
2021/10/03 12:59:31;;;;;;;7.90;7.10;;;22.50;99.60;;;;;;5056174;28;20446;-71